Homer, Ohio
Current Conditions -  °F | °C
As of 11:16 AM on Monday 24 Nov 2014 (Local Time) from K4I3 Reporting Station
Broken Clouds Broken Clouds  
Wind Chill: 17°   Ceiling: 4300
Heat Index: 17°   Visibility: 10mi
Dew Point:   Wind: 24mph
Humidity: 59%   Direction: 210°SSW
Pressure: 29.33"   Gusts: 43mph
Location:  40.25°N, 82.51°W
Report Text: K4I3 241616Z AUTO 21021G37KT 10SM BKN043 BKN050 BKN070 17/09 A2933 RMK AO2
Loading
Personal Weather Stations






























Interactive Weather Map New forecast layout! Learn more

10-Day Weather Forecast

Advertisements
Track Severe Weather on mobile